Strona główna
METAR-TAF:

METAR-TAF

Lotnisko :

Baza lotnicza

Morón de la Frontera, Hiszpania

Szerokość geograficzna: 37-09N, Długość geograficzna: 005-37W, wysokość: 87 m

Aktualna obserwacja pogody

Raport powstał 43 minut temu, godzina 18:00 UTC
Wiatr 13 kt od zachodnio-południowy zachód, zmienny między południowo-południowy zachód i zachodnio-północny zachód
Temperatura 31°C
Wilgotność 40%
Ciśnienie 1007 hPa
Widzialność 10 km lub więcej
Brak chmur poniżej 1500 m i brak chmur cumulonimbus

METAR: LEMO 251800Z 24013KT 210V290 CAVOK 31/16 Q1007 NOSIG

czas: 20:43 (18:43 UTC)

Prognoza

Raport powstał 4 godziny i 43 minut temu, godzina 14:00 UTC
Prognoza ważna od 25 godzina 15 UTC do 26 godzina 15 UTC
Wiatr 10 kt od zachodnio-południowy zachód
Widzialność 10 km lub więcej
Brak chmur poniżej 1500 m i brak chmur cumulonimbus
Stopniowe zmiany
od 25 godzina 20 UTC do 25 godzina 22 UTC
Wiatr 7 kt od południe

TAF: LEMO 251400Z 2515/2615 25010KT CAVOK TX35/2515Z TN17/2605Z BECMG 2520/2522 19007KT

Obserwacja i prognoza pogody dla ponad 4000 lotnisk (raport METAR i TAF).

Dostępne stacje oznaczono żółtymi i czerwonymi punktami na mapie.

Najedź kursorem aby zobaczyć nazwę stacji.

Kliknij aby zobaczyć obserwacje i prognozy pogody.

Aby zmienić mapę: kliknij na zielony przycisk z czarnym krzyżykiem, aby powiększyć; na zielony przycisk z myślnikiem, aby pomniejszyć; na zielone strzałki, aby przejść do map sąsiednich.


METAR-TAF: